sensor_id;sensor_type;location;lat;lon;timestamp;temperature;humidity
18085;DHT22;9169;44.492;11.372;2023-11-21T00:01:27;14.70;53.50
18085;DHT22;9169;44.492;11.372;2023-11-21T00:03:56;14.70;53.50
18085;DHT22;9169;44.492;11.372;2023-11-21T00:32:39;14.70;53.20
18085;DHT22;9169;44.492;11.372;2023-11-21T00:35:08;14.60;53.00
18085;DHT22;9169;44.492;11.372;2023-11-21T00:37:37;14.70;53.20
18085;DHT22;9169;44.492;11.372;2023-11-21T00:40:07;14.70;53.40
18085;DHT22;9169;44.492;11.372;2023-11-21T00:42:36;14.70;53.40
18085;DHT22;9169;44.492;11.372;2023-11-21T00:45:06;14.70;53.50
18085;DHT22;9169;44.492;11.372;2023-11-21T00:47:35;14.70;53.50
18085;DHT22;9169;44.492;11.372;2023-11-21T00:50:06;14.70;53.50
18085;DHT22;9169;44.492;11.372;2023-11-21T00:52:35;14.70;53.70
18085;DHT22;9169;44.492;11.372;2023-11-21T00:55:04;14.80;53.80
18085;DHT22;9169;44.492;11.372;2023-11-21T00:57:34;14.80;53.90
18085;DHT22;9169;44.492;11.372;2023-11-21T01:00:03;14.80;53.90
18085;DHT22;9169;44.492;11.372;2023-11-21T01:02:37;14.80;53.90
18085;DHT22;9169;44.492;11.372;2023-11-21T01:05:08;14.80;54.00
18085;DHT22;9169;44.492;11.372;2023-11-21T01:07:37;14.80;54.00
18085;DHT22;9169;44.492;11.372;2023-11-21T01:10:06;14.80;54.00
18085;DHT22;9169;44.492;11.372;2023-11-21T01:12:35;14.80;54.00
18085;DHT22;9169;44.492;11.372;2023-11-21T01:15:06;14.80;54.00
18085;DHT22;9169;44.492;11.372;2023-11-21T01:17:35;14.80;54.00
18085;DHT22;9169;44.492;11.372;2023-11-21T01:20:05;14.80;54.00
18085;DHT22;9169;44.492;11.372;2023-11-21T01:22:39;14.80;54.00
18085;DHT22;9169;44.492;11.372;2023-11-21T01:25:08;14.80;54.00
18085;DHT22;9169;44.492;11.372;2023-11-21T01:27:37;14.80;53.90
18085;DHT22;9169;44.492;11.372;2023-11-21T01:30:07;14.80;53.80
18085;DHT22;9169;44.492;11.372;2023-11-21T01:32:37;14.80;53.80
18085;DHT22;9169;44.492;11.372;2023-11-21T01:35:07;14.80;53.70
18085;DHT22;9169;44.492;11.372;2023-11-21T01:37:38;14.80;53.60
18085;DHT22;9169;44.492;11.372;2023-11-21T01:40:08;14.80;53.60
18085;DHT22;9169;44.492;11.372;2023-11-21T01:42:40;14.70;53.50
18085;DHT22;9169;44.492;11.372;2023-11-21T01:45:10;14.70;53.50
18085;DHT22;9169;44.492;11.372;2023-11-21T01:47:41;14.70;53.50
18085;DHT22;9169;44.492;11.372;2023-11-21T01:50:14;14.70;53.50
18085;DHT22;9169;44.492;11.372;2023-11-21T01:52:46;14.60;53.50
18085;DHT22;9169;44.492;11.372;2023-11-21T01:55:17;14.60;53.50
18085;DHT22;9169;44.492;11.372;2023-11-21T01:57:54;14.60;53.60
18085;DHT22;9169;44.492;11.372;2023-11-21T02:00:23;14.60;53.60
18085;DHT22;9169;44.492;11.372;2023-11-21T02:02:52;14.60;53.70
18085;DHT22;9169;44.492;11.372;2023-11-21T02:05:21;14.70;53.70
18085;DHT22;9169;44.492;11.372;2023-11-21T02:07:52;14.60;53.70
18085;DHT22;9169;44.492;11.372;2023-11-21T02:10:20;14.70;53.80
18085;DHT22;9169;44.492;11.372;2023-11-21T02:12:50;14.70;54.30
18085;DHT22;9169;44.492;11.372;2023-11-21T02:15:19;14.70;53.80
18085;DHT22;9169;44.492;11.372;2023-11-21T02:17:49;14.70;53.80
18085;DHT22;9169;44.492;11.372;2023-11-21T02:20:19;14.70;53.90
18085;DHT22;9169;44.492;11.372;2023-11-21T02:22:52;14.70;54.00
18085;DHT22;9169;44.492;11.372;2023-11-21T02:25:25;14.70;54.10
18085;DHT22;9169;44.492;11.372;2023-11-21T02:27:54;14.70;54.10
18085;DHT22;9169;44.492;11.372;2023-11-21T02:30:24;14.70;54.10
18085;DHT22;9169;44.492;11.372;2023-11-21T02:32:53;14.70;54.10
18085;DHT22;9169;44.492;11.372;2023-11-21T02:35:21;14.60;54.10
18085;DHT22;9169;44.492;11.372;2023-11-21T02:37:52;14.60;54.10
18085;DHT22;9169;44.492;11.372;2023-11-21T02:40:20;14.60;54.30
18085;DHT22;9169;44.492;11.372;2023-11-21T02:42:49;14.50;54.30
18085;DHT22;9169;44.492;11.372;2023-11-21T02:45:20;14.50;54.40
18085;DHT22;9169;44.492;11.372;2023-11-21T02:47:49;14.40;54.30
18085;DHT22;9169;44.492;11.372;2023-11-21T02:50:17;14.40;54.40
18085;DHT22;9169;44.492;11.372;2023-11-21T02:52:47;14.40;54.50
18085;DHT22;9169;44.492;11.372;2023-11-21T02:55:17;14.40;54.50
18085;DHT22;9169;44.492;11.372;2023-11-21T02:57:46;14.40;54.60
18085;DHT22;9169;44.492;11.372;2023-11-21T03:00:15;14.30;54.50
18085;DHT22;9169;44.492;11.372;2023-11-21T03:02:45;14.40;54.60
18085;DHT22;9169;44.492;11.372;2023-11-21T03:05:14;14.40;54.50
18085;DHT22;9169;44.492;11.372;2023-11-21T03:07:43;14.40;54.50
18085;DHT22;9169;44.492;11.372;2023-11-21T03:10:12;14.40;54.60
18085;DHT22;9169;44.492;11.372;2023-11-21T03:12:42;14.40;54.60
18085;DHT22;9169;44.492;11.372;2023-11-21T03:15:11;14.40;54.60
18085;DHT22;9169;44.492;11.372;2023-11-21T03:17:40;14.40;54.50
18085;DHT22;9169;44.492;11.372;2023-11-21T03:20:10;14.40;54.50
18085;DHT22;9169;44.492;11.372;2023-11-21T03:22:39;14.40;54.50
18085;DHT22;9169;44.492;11.372;2023-11-21T03:25:08;14.40;54.50
18085;DHT22;9169;44.492;11.372;2023-11-21T03:27:38;14.40;54.70
18085;DHT22;9169;44.492;11.372;2023-11-21T03:30:09;14.40;54.70
18085;DHT22;9169;44.492;11.372;2023-11-21T03:32:38;14.40;54.70
18085;DHT22;9169;44.492;11.372;2023-11-21T03:35:08;14.30;54.60
18085;DHT22;9169;44.492;11.372;2023-11-21T03:37:36;14.40;55.20
18085;DHT22;9169;44.492;11.372;2023-11-21T03:40:09;14.40;54.70
18085;DHT22;9169;44.492;11.372;2023-11-21T03:42:39;14.40;54.70
18085;DHT22;9169;44.492;11.372;2023-11-21T03:45:09;14.40;54.70
18085;DHT22;9169;44.492;11.372;2023-11-21T03:47:40;14.40;54.60
18085;DHT22;9169;44.492;11.372;2023-11-21T03:50:09;14.40;54.60
18085;DHT22;9169;44.492;11.372;2023-11-21T03:52:38;14.40;54.50
18085;DHT22;9169;44.492;11.372;2023-11-21T03:55:07;14.40;54.60
18085;DHT22;9169;44.492;11.372;2023-11-21T03:57:40;14.40;54.60
18085;DHT22;9169;44.492;11.372;2023-11-21T04:00:11;14.40;54.50
18085;DHT22;9169;44.492;11.372;2023-11-21T04:02:40;14.50;54.50
18085;DHT22;9169;44.492;11.372;2023-11-21T04:05:08;14.50;54.40
18085;DHT22;9169;44.492;11.372;2023-11-21T04:07:37;14.50;54.40
18085;DHT22;9169;44.492;11.372;2023-11-21T04:10:07;14.50;54.30
18085;DHT22;9169;44.492;11.372;2023-11-21T04:12:36;14.50;54.20
18085;DHT22;9169;44.492;11.372;2023-11-21T04:15:05;14.50;54.10
18085;DHT22;9169;44.492;11.372;2023-11-21T04:17:37;14.50;54.00
18085;DHT22;9169;44.492;11.372;2023-11-21T04:20:07;14.50;53.80
18085;DHT22;9169;44.492;11.372;2023-11-21T04:22:37;14.60;53.80
18085;DHT22;9169;44.492;11.372;2023-11-21T04:25:08;14.50;53.70
18085;DHT22;9169;44.492;11.372;2023-11-21T04:27:40;14.50;53.50
18085;DHT22;9169;44.492;11.372;2023-11-21T04:30:11;14.50;53.50
18085;DHT22;9169;44.492;11.372;2023-11-21T04:32:42;14.50;53.50
18085;DHT22;9169;44.492;11.372;2023-11-21T04:35:10;14.50;53.50
18085;DHT22;9169;44.492;11.372;2023-11-21T04:37:39;14.50;53.50
18085;DHT22;9169;44.492;11.372;2023-11-21T04:40:08;14.60;53.70
18085;DHT22;9169;44.492;11.372;2023-11-21T04:42:37;14.60;53.70
18085;DHT22;9169;44.492;11.372;2023-11-21T04:45:07;14.60;53.60
18085;DHT22;9169;44.492;11.372;2023-11-21T04:47:38;14.60;53.60
18085;DHT22;9169;44.492;11.372;2023-11-21T04:50:09;14.60;53.60
18085;DHT22;9169;44.492;11.372;2023-11-21T04:52:38;14.60;53.70
18085;DHT22;9169;44.492;11.372;2023-11-21T04:55:07;14.60;53.80
18085;DHT22;9169;44.492;11.372;2023-11-21T04:57:37;14.60;53.80
18085;DHT22;9169;44.492;11.372;2023-11-21T05:00:08;14.60;53.90
18085;DHT22;9169;44.492;11.372;2023-11-21T05:02:37;14.60;54.00
18085;DHT22;9169;44.492;11.372;2023-11-21T05:05:08;14.60;53.90
18085;DHT22;9169;44.492;11.372;2023-11-21T05:07:38;14.60;54.00
18085;DHT22;9169;44.492;11.372;2023-11-21T05:10:07;14.60;54.00
18085;DHT22;9169;44.492;11.372;2023-11-21T05:12:40;14.60;54.00
18085;DHT22;9169;44.492;11.372;2023-11-21T05:15:10;14.50;53.90
18085;DHT22;9169;44.492;11.372;2023-11-21T05:17:41;14.50;54.00
18085;DHT22;9169;44.492;11.372;2023-11-21T05:20:13;14.50;54.00
18085;DHT22;9169;44.492;11.372;2023-11-21T05:22:45;14.50;54.00
18085;DHT22;9169;44.492;11.372;2023-11-21T05:25:13;14.50;54.00
18085;DHT22;9169;44.492;11.372;2023-11-21T05:27:42;14.40;54.00
18085;DHT22;9169;44.492;11.372;2023-11-21T05:30:11;14.40;54.00
18085;DHT22;9169;44.492;11.372;2023-11-21T05:32:40;14.50;54.10
18085;DHT22;9169;44.492;11.372;2023-11-21T05:35:11;14.50;54.10
18085;DHT22;9169;44.492;11.372;2023-11-21T05:37:43;14.50;54.10
18085;DHT22;9169;44.492;11.372;2023-11-21T05:40:12;14.50;54.10
18085;DHT22;9169;44.492;11.372;2023-11-21T05:42:41;14.50;54.00
18085;DHT22;9169;44.492;11.372;2023-11-21T05:45:10;14.50;54.00
18085;DHT22;9169;44.492;11.372;2023-11-21T05:47:40;14.50;54.00
18085;DHT22;9169;44.492;11.372;2023-11-21T05:50:09;14.40;53.90
18085;DHT22;9169;44.492;11.372;2023-11-21T05:52:41;14.40;53.70
18085;DHT22;9169;44.492;11.372;2023-11-21T05:55:10;14.40;53.60
18085;DHT22;9169;44.492;11.372;2023-11-21T05:57:41;14.40;53.70
18085;DHT22;9169;44.492;11.372;2023-11-21T06:00:12;14.40;53.70
18085;DHT22;9169;44.492;11.372;2023-11-21T06:02:45;14.40;53.70
18085;DHT22;9169;44.492;11.372;2023-11-21T06:05:14;14.40;53.70
18085;DHT22;9169;44.492;11.372;2023-11-21T06:07:44;14.40;53.60
18085;DHT22;9169;44.492;11.372;2023-11-21T06:10:13;14.50;53.70
18085;DHT22;9169;44.492;11.372;2023-11-21T06:12:41;14.50;53.70
18085;DHT22;9169;44.492;11.372;2023-11-21T06:15:11;14.50;53.60
18085;DHT22;9169;44.492;11.372;2023-11-21T06:17:42;14.50;53.50
18085;DHT22;9169;44.492;11.372;2023-11-21T06:20:12;14.50;53.50
18085;DHT22;9169;44.492;11.372;2023-11-21T06:22:43;14.50;53.50
18085;DHT22;9169;44.492;11.372;2023-11-21T06:25:12;14.50;53.50
18085;DHT22;9169;44.492;11.372;2023-11-21T06:27:42;14.50;53.40
18085;DHT22;9169;44.492;11.372;2023-11-21T06:30:12;14.50;53.40
18085;DHT22;9169;44.492;11.372;2023-11-21T06:32:42;14.50;53.40
18085;DHT22;9169;44.492;11.372;2023-11-21T06:35:13;14.60;53.40
18085;DHT22;9169;44.492;11.372;2023-11-21T06:37:43;14.60;53.40
18085;DHT22;9169;44.492;11.372;2023-11-21T06:40:15;14.60;53.40
18085;DHT22;9169;44.492;11.372;2023-11-21T06:42:45;14.60;53.40
18085;DHT22;9169;44.492;11.372;2023-11-21T06:45:14;14.60;53.40
18085;DHT22;9169;44.492;11.372;2023-11-21T06:47:43;14.60;53.40
18085;DHT22;9169;44.492;11.372;2023-11-21T06:50:13;14.60;53.50
18085;DHT22;9169;44.492;11.372;2023-11-21T06:52:43;14.60;53.50
18085;DHT22;9169;44.492;11.372;2023-11-21T06:55:12;14.60;53.50
18085;DHT22;9169;44.492;11.372;2023-11-21T06:57:40;14.60;53.60
18085;DHT22;9169;44.492;11.372;2023-11-21T07:00:09;14.60;53.70
18085;DHT22;9169;44.492;11.372;2023-11-21T07:02:38;14.60;53.70
18085;DHT22;9169;44.492;11.372;2023-11-21T07:05:07;14.60;53.80
18085;DHT22;9169;44.492;11.372;2023-11-21T07:07:36;14.60;53.80
18085;DHT22;9169;44.492;11.372;2023-11-21T07:10:07;14.70;54.00
18085;DHT22;9169;44.492;11.372;2023-11-21T07:12:36;14.70;53.90
18085;DHT22;9169;44.492;11.372;2023-11-21T07:15:06;14.70;54.00
18085;DHT22;9169;44.492;11.372;2023-11-21T07:17:36;14.60;53.90
18085;DHT22;9169;44.492;11.372;2023-11-21T07:20:07;14.70;53.90
18085;DHT22;9169;44.492;11.372;2023-11-21T07:22:36;14.70;54.00
18085;DHT22;9169;44.492;11.372;2023-11-21T07:25:06;14.70;54.00
18085;DHT22;9169;44.492;11.372;2023-11-21T07:27:36;14.70;54.10
18085;DHT22;9169;44.492;11.372;2023-11-21T07:30:06;14.70;54.10
18085;DHT22;9169;44.492;11.372;2023-11-21T07:32:37;14.70;54.10
18085;DHT22;9169;44.492;11.372;2023-11-21T07:35:08;14.70;54.20
18085;DHT22;9169;44.492;11.372;2023-11-21T07:37:37;14.70;54.20
18085;DHT22;9169;44.492;11.372;2023-11-21T07:40:08;14.70;54.20
18085;DHT22;9169;44.492;11.372;2023-11-21T07:42:38;14.80;54.40
18085;DHT22;9169;44.492;11.372;2023-11-21T07:45:08;14.70;54.40
18085;DHT22;9169;44.492;11.372;2023-11-21T07:47:37;14.80;54.70
18085;DHT22;9169;44.492;11.372;2023-11-21T07:50:07;14.80;54.90
18085;DHT22;9169;44.492;11.372;2023-11-21T07:52:36;14.80;55.10
18085;DHT22;9169;44.492;11.372;2023-11-21T07:55:06;14.80;55.40
18085;DHT22;9169;44.492;11.372;2023-11-21T07:57:35;14.80;55.50
18085;DHT22;9169;44.492;11.372;2023-11-21T08:00:05;14.80;55.60
18085;DHT22;9169;44.492;11.372;2023-11-21T08:02:39;14.80;55.90
18085;DHT22;9169;44.492;11.372;2023-11-21T08:05:09;14.80;56.00
18085;DHT22;9169;44.492;11.372;2023-11-21T08:07:39;14.90;56.20
18085;DHT22;9169;44.492;11.372;2023-11-21T08:10:10;14.90;56.30
18085;DHT22;9169;44.492;11.372;2023-11-21T08:12:38;14.90;56.60
18085;DHT22;9169;44.492;11.372;2023-11-21T08:15:08;14.90;56.70
18085;DHT22;9169;44.492;11.372;2023-11-21T08:17:37;14.90;56.90
18085;DHT22;9169;44.492;11.372;2023-11-21T08:20:07;14.90;57.20
18085;DHT22;9169;44.492;11.372;2023-11-21T08:22:38;14.90;57.30
18085;DHT22;9169;44.492;11.372;2023-11-21T08:25:09;14.90;57.40
18085;DHT22;9169;44.492;11.372;2023-11-21T08:27:38;14.90;57.60
18085;DHT22;9169;44.492;11.372;2023-11-21T08:30:07;14.90;57.70
18085;DHT22;9169;44.492;11.372;2023-11-21T08:32:36;14.90;57.80
18085;DHT22;9169;44.492;11.372;2023-11-21T08:35:04;14.90;57.90
18085;DHT22;9169;44.492;11.372;2023-11-21T08:37:34;14.90;58.00
18085;DHT22;9169;44.492;11.372;2023-11-21T08:40:05;14.90;58.20
18085;DHT22;9169;44.492;11.372;2023-11-21T08:42:37;14.90;58.10
18085;DHT22;9169;44.492;11.372;2023-11-21T08:45:07;14.90;58.10
18085;DHT22;9169;44.492;11.372;2023-11-21T08:47:36;14.80;58.20
18085;DHT22;9169;44.492;11.372;2023-11-21T08:50:05;14.80;58.50
18085;DHT22;9169;44.492;11.372;2023-11-21T08:52:34;14.80;57.90
18085;DHT22;9169;44.492;11.372;2023-11-21T08:55:04;14.80;57.70
18085;DHT22;9169;44.492;11.372;2023-11-21T08:57:36;14.80;57.70
18085;DHT22;9169;44.492;11.372;2023-11-21T09:00:06;14.80;57.80
18085;DHT22;9169;44.492;11.372;2023-11-21T09:02:38;14.90;57.80
18085;DHT22;9169;44.492;11.372;2023-11-21T09:05:09;14.90;57.80
18085;DHT22;9169;44.492;11.372;2023-11-21T09:07:39;14.90;57.80
18085;DHT22;9169;44.492;11.372;2023-11-21T09:10:09;14.90;58.00
18085;DHT22;9169;44.492;11.372;2023-11-21T09:12:39;14.80;58.00
18085;DHT22;9169;44.492;11.372;2023-11-21T09:15:09;14.80;58.10
18085;DHT22;9169;44.492;11.372;2023-11-21T09:17:39;14.80;58.10
18085;DHT22;9169;44.492;11.372;2023-11-21T09:20:08;14.80;58.10
18085;DHT22;9169;44.492;11.372;2023-11-21T09:22:38;14.80;58.10
18085;DHT22;9169;44.492;11.372;2023-11-21T09:25:07;14.90;58.10
18085;DHT22;9169;44.492;11.372;2023-11-21T09:27:36;14.90;58.10
18085;DHT22;9169;44.492;11.372;2023-11-21T09:30:08;14.90;58.00
18085;DHT22;9169;44.492;11.372;2023-11-21T09:32:38;14.90;58.00
18085;DHT22;9169;44.492;11.372;2023-11-21T09:35:08;14.80;57.90
18085;DHT22;9169;44.492;11.372;2023-11-21T09:37:37;14.80;57.90
18085;DHT22;9169;44.492;11.372;2023-11-21T09:40:10;14.80;58.00
18085;DHT22;9169;44.492;11.372;2023-11-21T09:42:46;14.80;58.20
18085;DHT22;9169;44.492;11.372;2023-11-21T09:45:24;14.80;58.20
18085;DHT22;9169;44.492;11.372;2023-11-21T09:47:54;14.80;58.30
18085;DHT22;9169;44.492;11.372;2023-11-21T09:50:24;14.80;58.30
18085;DHT22;9169;44.492;11.372;2023-11-21T09:53:11;14.80;58.30
18085;DHT22;9169;44.492;11.372;2023-11-21T09:55:43;14.70;58.40
18085;DHT22;9169;44.492;11.372;2023-11-21T09:58:13;14.70;58.20
18085;DHT22;9169;44.492;11.372;2023-11-21T10:00:47;14.70;58.20
18085;DHT22;9169;44.492;11.372;2023-11-21T10:03:15;14.70;58.30
18085;DHT22;9169;44.492;11.372;2023-11-21T10:05:45;14.70;58.30
18085;DHT22;9169;44.492;11.372;2023-11-21T10:08:14;14.70;58.30
18085;DHT22;9169;44.492;11.372;2023-11-21T10:10:44;14.70;58.30
18085;DHT22;9169;44.492;11.372;2023-11-21T10:13:15;14.60;58.40
18085;DHT22;9169;44.492;11.372;2023-11-21T10:15:50;14.60;58.50
18085;DHT22;9169;44.492;11.372;2023-11-21T10:18:20;14.60;58.80
18085;DHT22;9169;44.492;11.372;2023-11-21T10:20:50;14.60;59.20
18085;DHT22;9169;44.492;11.372;2023-11-21T10:23:20;14.60;59.20
18085;DHT22;9169;44.492;11.372;2023-11-21T10:25:49;14.60;59.20
18085;DHT22;9169;44.492;11.372;2023-11-21T10:28:19;14.60;59.30
18085;DHT22;9169;44.492;11.372;2023-11-21T10:30:49;14.60;59.30
18085;DHT22;9169;44.492;11.372;2023-11-21T10:33:17;14.50;59.20
18085;DHT22;9169;44.492;11.372;2023-11-21T10:35:55;14.50;59.40
18085;DHT22;9169;44.492;11.372;2023-11-21T10:38:23;14.40;59.60
18085;DHT22;9169;44.492;11.372;2023-11-21T10:40:54;14.30;59.70
18085;DHT22;9169;44.492;11.372;2023-11-21T10:43:25;14.20;60.70
18085;DHT22;9169;44.492;11.372;2023-11-21T10:45:57;14.20;60.40
18085;DHT22;9169;44.492;11.372;2023-11-21T10:48:27;14.20;60.70
18085;DHT22;9169;44.492;11.372;2023-11-21T10:50:56;14.20;60.90
18085;DHT22;9169;44.492;11.372;2023-11-21T10:53:28;14.20;61.00
18085;DHT22;9169;44.492;11.372;2023-11-21T10:56:02;14.20;61.20
18085;DHT22;9169;44.492;11.372;2023-11-21T10:58:34;14.30;61.60
18085;DHT22;9169;44.492;11.372;2023-11-21T11:01:06;14.40;62.10
18085;DHT22;9169;44.492;11.372;2023-11-21T11:03:36;14.40;62.20
18085;DHT22;9169;44.492;11.372;2023-11-21T11:06:05;14.50;62.40
18085;DHT22;9169;44.492;11.372;2023-11-21T11:08:39;14.50;62.50
18085;DHT22;9169;44.492;11.372;2023-11-21T11:11:10;14.60;62.50
18085;DHT22;9169;44.492;11.372;2023-11-21T11:13:43;14.60;62.40
18085;DHT22;9169;44.492;11.372;2023-11-21T11:16:15;14.70;62.40
18085;DHT22;9169;44.492;11.372;2023-11-21T11:18:45;14.70;62.20
18085;DHT22;9169;44.492;11.372;2023-11-21T11:21:27;14.70;61.70
18085;DHT22;9169;44.492;11.372;2023-11-21T11:24:20;14.70;61.40
18085;DHT22;9169;44.492;11.372;2023-11-21T11:26:58;14.70;61.10
18085;DHT22;9169;44.492;11.372;2023-11-21T11:29:35;14.70;60.70
18085;DHT22;9169;44.492;11.372;2023-11-21T11:32:19;14.70;60.60
18085;DHT22;9169;44.492;11.372;2023-11-21T11:34:57;14.70;60.20
18085;DHT22;9169;44.492;11.372;2023-11-21T11:37:30;14.70;59.90
18085;DHT22;9169;44.492;11.372;2023-11-21T11:39:59;14.70;59.70
18085;DHT22;9169;44.492;11.372;2023-11-21T11:42:28;14.60;59.60
18085;DHT22;9169;44.492;11.372;2023-11-21T11:44:59;14.50;59.50
18085;DHT22;9169;44.492;11.372;2023-11-21T11:47:32;14.50;59.50
18085;DHT22;9169;44.492;11.372;2023-11-21T11:50:03;14.50;59.50
18085;DHT22;9169;44.492;11.372;2023-11-21T11:52:38;14.50;59.60
18085;DHT22;9169;44.492;11.372;2023-11-21T11:55:08;14.40;59.40
18085;DHT22;9169;44.492;11.372;2023-11-21T11:57:38;14.40;59.70
18085;DHT22;9169;44.492;11.372;2023-11-21T12:00:12;14.40;59.80
18085;DHT22;9169;44.492;11.372;2023-11-21T12:02:46;14.40;59.60
18085;DHT22;9169;44.492;11.372;2023-11-21T12:05:17;14.40;59.80
18085;DHT22;9169;44.492;11.372;2023-11-21T12:07:48;14.40;59.90
18085;DHT22;9169;44.492;11.372;2023-11-21T12:10:18;14.40;59.80
18085;DHT22;9169;44.492;11.372;2023-11-21T12:12:48;14.40;59.90
18085;DHT22;9169;44.492;11.372;2023-11-21T12:15:17;14.50;60.10
18085;DHT22;9169;44.492;11.372;2023-11-21T12:17:48;14.50;60.00
18085;DHT22;9169;44.492;11.372;2023-11-21T12:20:19;14.50;60.00
18085;DHT22;9169;44.492;11.372;2023-11-21T12:22:49;14.50;60.00
18085;DHT22;9169;44.492;11.372;2023-11-21T12:25:18;14.50;59.90
18085;DHT22;9169;44.492;11.372;2023-11-21T12:27:48;14.50;59.90
18085;DHT22;9169;44.492;11.372;2023-11-21T12:30:18;14.50;59.90
18085;DHT22;9169;44.492;11.372;2023-11-21T12:32:51;14.60;60.00
18085;DHT22;9169;44.492;11.372;2023-11-21T12:35:22;14.50;59.60
18085;DHT22;9169;44.492;11.372;2023-11-21T12:37:51;14.50;59.40
18085;DHT22;9169;44.492;11.372;2023-11-21T12:40:20;14.40;59.30
18085;DHT22;9169;44.492;11.372;2023-11-21T12:42:52;14.40;59.40
18085;DHT22;9169;44.492;11.372;2023-11-21T12:45:22;14.40;59.50
18085;DHT22;9169;44.492;11.372;2023-11-21T12:47:55;14.40;59.50
18085;DHT22;9169;44.492;11.372;2023-11-21T12:50:29;14.40;59.70
18085;DHT22;9169;44.492;11.372;2023-11-21T12:53:00;14.40;59.70
18085;DHT22;9169;44.492;11.372;2023-11-21T12:55:30;14.50;59.70
18085;DHT22;9169;44.492;11.372;2023-11-21T12:58:02;14.50;59.70
18085;DHT22;9169;44.492;11.372;2023-11-21T13:00:37;14.50;59.80
18085;DHT22;9169;44.492;11.372;2023-11-21T13:03:09;14.50;59.70
18085;DHT22;9169;44.492;11.372;2023-11-21T13:05:40;14.50;59.60
18085;DHT22;9169;44.492;11.372;2023-11-21T13:08:10;14.50;59.60
18085;DHT22;9169;44.492;11.372;2023-11-21T13:10:41;14.50;59.60
18085;DHT22;9169;44.492;11.372;2023-11-21T13:13:11;14.50;59.60
18085;DHT22;9169;44.492;11.372;2023-11-21T13:15:48;14.50;59.50
18085;DHT22;9169;44.492;11.372;2023-11-21T13:18:18;14.50;59.50
18085;DHT22;9169;44.492;11.372;2023-11-21T13:20:49;14.50;59.40
18085;DHT22;9169;44.492;11.372;2023-11-21T13:23:18;14.50;59.40
18085;DHT22;9169;44.492;11.372;2023-11-21T13:25:46;14.50;59.50
18085;DHT22;9169;44.492;11.372;2023-11-21T13:28:17;14.50;59.60
18085;DHT22;9169;44.492;11.372;2023-11-21T13:30:48;14.50;59.60
18085;DHT22;9169;44.492;11.372;2023-11-21T13:33:20;14.50;59.60
18085;DHT22;9169;44.492;11.372;2023-11-21T13:35:54;14.50;59.60
18085;DHT22;9169;44.492;11.372;2023-11-21T13:38:23;14.50;59.50
18085;DHT22;9169;44.492;11.372;2023-11-21T13:40:57;14.50;59.50
18085;DHT22;9169;44.492;11.372;2023-11-21T13:43:25;14.50;59.50
18085;DHT22;9169;44.492;11.372;2023-11-21T13:45:56;14.50;59.30
18085;DHT22;9169;44.492;11.372;2023-11-21T13:48:31;14.50;59.30
18085;DHT22;9169;44.492;11.372;2023-11-21T13:51:01;14.50;59.30
18085;DHT22;9169;44.492;11.372;2023-11-21T13:53:40;14.50;59.30
18085;DHT22;9169;44.492;11.372;2023-11-21T13:56:09;14.50;59.20
18085;DHT22;9169;44.492;11.372;2023-11-21T13:58:38;14.50;59.10
18085;DHT22;9169;44.492;11.372;2023-11-21T14:01:14;14.50;58.90
18085;DHT22;9169;44.492;11.372;2023-11-21T14:04:04;14.50;58.80
18085;DHT22;9169;44.492;11.372;2023-11-21T14:06:47;14.50;58.90
18085;DHT22;9169;44.492;11.372;2023-11-21T14:09:19;14.50;59.00
18085;DHT22;9169;44.492;11.372;2023-11-21T14:11:52;14.50;59.10
18085;DHT22;9169;44.492;11.372;2023-11-21T14:14:24;14.50;59.20
18085;DHT22;9169;44.492;11.372;2023-11-21T14:16:53;14.50;59.30
18085;DHT22;9169;44.492;11.372;2023-11-21T14:19:24;14.50;59.40
18085;DHT22;9169;44.492;11.372;2023-11-21T14:21:57;14.50;59.40
18085;DHT22;9169;44.492;11.372;2023-11-21T14:24:26;14.50;59.50
18085;DHT22;9169;44.492;11.372;2023-11-21T14:26:56;14.50;59.60
18085;DHT22;9169;44.492;11.372;2023-11-21T14:29:24;14.50;60.00
18085;DHT22;9169;44.492;11.372;2023-11-21T14:31:54;14.60;60.20
18085;DHT22;9169;44.492;11.372;2023-11-21T14:34:25;14.60;60.30
18085;DHT22;9169;44.492;11.372;2023-11-21T14:36:54;14.60;60.40
18085;DHT22;9169;44.492;11.372;2023-11-21T14:39:22;14.60;60.30
18085;DHT22;9169;44.492;11.372;2023-11-21T14:41:54;14.60;60.30
18085;DHT22;9169;44.492;11.372;2023-11-21T14:44:25;14.70;60.40
18085;DHT22;9169;44.492;11.372;2023-11-21T14:46:59;14.70;60.30
18085;DHT22;9169;44.492;11.372;2023-11-21T14:49:34;14.70;60.30
18085;DHT22;9169;44.492;11.372;2023-11-21T14:52:17;14.80;60.40
18085;DHT22;9169;44.492;11.372;2023-11-21T14:54:59;14.80;60.20
18085;DHT22;9169;44.492;11.372;2023-11-21T14:57:41;14.80;60.10
18085;DHT22;9169;44.492;11.372;2023-11-21T15:00:17;14.80;60.30
18085;DHT22;9169;44.492;11.372;2023-11-21T15:03:05;14.80;60.40
18085;DHT22;9169;44.492;11.372;2023-11-21T15:05:35;14.80;60.30
18085;DHT22;9169;44.492;11.372;2023-11-21T15:08:03;14.70;60.00
18085;DHT22;9169;44.492;11.372;2023-11-21T15:10:47;14.70;59.80
18085;DHT22;9169;44.492;11.372;2023-11-21T15:13:20;14.60;59.70
18085;DHT22;9169;44.492;11.372;2023-11-21T15:15:51;14.60;59.80
18085;DHT22;9169;44.492;11.372;2023-11-21T15:18:21;14.50;59.80
18085;DHT22;9169;44.492;11.372;2023-11-21T15:20:52;14.50;60.00
18085;DHT22;9169;44.492;11.372;2023-11-21T15:23:22;14.50;60.20
18085;DHT22;9169;44.492;11.372;2023-11-21T15:25:50;14.40;60.40
18085;DHT22;9169;44.492;11.372;2023-11-21T15:28:19;14.40;60.60
18085;DHT22;9169;44.492;11.372;2023-11-21T15:30:48;14.40;60.70
18085;DHT22;9169;44.492;11.372;2023-11-21T15:33:18;14.30;60.80
18085;DHT22;9169;44.492;11.372;2023-11-21T15:35:46;14.30;61.60
18085;DHT22;9169;44.492;11.372;2023-11-21T15:38:16;14.20;60.80
18085;DHT22;9169;44.492;11.372;2023-11-21T15:40:47;14.20;61.00
18085;DHT22;9169;44.492;11.372;2023-11-21T15:43:16;14.20;61.10
18085;DHT22;9169;44.492;11.372;2023-11-21T15:45:47;14.20;61.30
18085;DHT22;9169;44.492;11.372;2023-11-21T15:48:15;14.20;61.60
18085;DHT22;9169;44.492;11.372;2023-11-21T15:50:44;14.20;61.70
18085;DHT22;9169;44.492;11.372;2023-11-21T15:53:13;14.20;61.80
18085;DHT22;9169;44.492;11.372;2023-11-21T15:55:44;14.30;61.90
18085;DHT22;9169;44.492;11.372;2023-11-21T15:58:12;14.30;62.10
18085;DHT22;9169;44.492;11.372;2023-11-21T16:00:41;14.30;62.00
18085;DHT22;9169;44.492;11.372;2023-11-21T16:03:10;14.30;62.00
18085;DHT22;9169;44.492;11.372;2023-11-21T16:05:40;14.30;62.10
18085;DHT22;9169;44.492;11.372;2023-11-21T16:08:08;14.30;62.80
18085;DHT22;9169;44.492;11.372;2023-11-21T16:10:37;14.30;62.00
18085;DHT22;9169;44.492;11.372;2023-11-21T16:13:07;14.30;62.10
18085;DHT22;9169;44.492;11.372;2023-11-21T16:15:36;14.30;62.10
18085;DHT22;9169;44.492;11.372;2023-11-21T16:18:05;14.30;62.00